Time;durP1;ratioP1;P1;durP2;ratioP2;P2;SDS_P1;SDS_P2;PMS_P1;PMS_P2;Temp;Humidity;BMP_temperature;BMP_pressure;BME280_temperature;BME280_humidity;BME280_pressure;Samples;Min_cycle;Max_cycle;Signal;HPM_P1;HPM_P2
2022/03/15 00:00:44;;;;;;;46.67;25.48;;;4.70;99.90;;;;;;5096144;28;20025;-71
2022/03/15 00:03:10;;;;;;;49.40;27.42;;;4.70;99.90;;;;;;5096024;28;20027;-71
2022/03/15 00:05:35;;;;;;;47.42;25.38;;;4.70;99.90;;;;;;5077792;28;20052;-71
2022/03/15 00:08:01;;;;;;;43.40;24.20;;;4.70;99.90;;;;;;5095406;28;20024;-71
2022/03/15 00:10:27;;;;;;;48.10;25.17;;;4.70;99.90;;;;;;5094540;28;20023;-71
2022/03/15 00:12:56;;;;;;;38.65;23.25;;;4.70;99.90;;;;;;5094629;28;20513;-71
2022/03/15 00:15:22;;;;;;;44.13;24.63;;;4.70;99.90;;;;;;5094588;28;20020;-71
2022/03/15 00:17:47;;;;;;;36.38;22.40;;;4.70;99.90;;;;;;5095739;28;20440;-71
2022/03/15 00:20:15;;;;;;;41.97;24.50;;;4.70;99.90;;;;;;5077631;28;20505;-71
2022/03/15 00:22:41;;;;;;;43.70;22.58;;;4.70;99.90;;;;;;5095662;28;20095;-71
2022/03/15 00:25:10;;;;;;;40.50;23.05;;;4.70;99.90;;;;;;5094307;28;20024;-71
2022/03/15 00:27:36;;;;;;;39.15;22.20;;;4.70;99.90;;;;;;5094270;28;20028;-71
2022/03/15 00:30:05;;;;;;;41.60;23.15;;;4.60;99.90;;;;;;5095425;28;20108;-71
2022/03/15 00:32:31;;;;;;;42.42;23.70;;;4.60;99.90;;;;;;5094437;28;20031;-71
2022/03/15 00:34:56;;;;;;;40.45;24.20;;;4.60;99.90;;;;;;5093875;28;20044;-71
2022/03/15 00:37:22;;;;;;;42.33;22.98;;;4.60;99.90;;;;;;5094196;28;20386;-72
2022/03/15 00:39:49;;;;;;;43.53;24.05;;;4.60;99.90;;;;;;5094094;28;20543;-72
2022/03/15 00:42:14;;;;;;;37.90;21.80;;;4.70;99.90;;;;;;5095205;28;20034;-72
2022/03/15 00:44:40;;;;;;;34.15;20.83;;;4.70;99.90;;;;;;5094078;28;20107;-72
2022/03/15 00:47:06;;;;;;;35.35;21.35;;;4.70;99.90;;;;;;5095195;28;20059;-72
2022/03/15 00:49:32;;;;;;;35.03;20.80;;;4.70;99.90;;;;;;5094983;28;20532;-72
2022/03/15 00:51:57;;;;;;;34.85;21.33;;;4.70;99.90;;;;;;5094993;28;20024;-72
2022/03/15 00:54:23;;;;;;;33.15;19.73;;;4.60;99.90;;;;;;5094909;28;20394;-72
2022/03/15 00:56:50;;;;;;;36.63;22.23;;;4.60;99.90;;;;;;5094940;28;20024;-71
2022/03/15 00:59:15;;;;;;;37.47;22.33;;;4.50;99.90;;;;;;5093656;28;20024;-72
2022/03/15 01:01:41;;;;;;;37.20;21.05;;;4.50;99.90;;;;;;5094862;28;20024;-71
2022/03/15 01:04:07;;;;;;;34.53;20.70;;;4.50;99.90;;;;;;5094815;28;20013;-71
2022/03/15 01:06:34;;;;;;;42.92;21.40;;;4.50;99.90;;;;;;5093604;28;20024;-71
2022/03/15 01:09:00;;;;;;;31.15;19.25;;;4.50;99.90;;;;;;5093449;28;20370;-72
2022/03/15 01:11:26;;;;;;;40.70;20.58;;;4.40;99.90;;;;;;5093417;28;20500;-71
2022/03/15 01:13:52;;;;;;;37.92;21.10;;;4.40;99.90;;;;;;5094530;28;20020;-71
2022/03/15 01:16:17;;;;;;;36.38;21.27;;;4.40;99.90;;;;;;5093430;28;20028;-71
2022/03/15 01:18:43;;;;;;;34.60;19.85;;;4.30;99.90;;;;;;5093590;28;20028;-71
2022/03/15 01:21:11;;;;;;;39.17;22.17;;;4.30;99.90;;;;;;5093397;28;20027;-71
2022/03/15 01:23:36;;;;;;;43.10;22.30;;;4.30;99.90;;;;;;5094781;28;20420;-71
2022/03/15 01:26:03;;;;;;;37.15;22.13;;;4.30;99.90;;;;;;5094468;28;20032;-71
2022/03/15 01:28:29;;;;;;;35.80;22.77;;;4.30;99.90;;;;;;5094329;28;20032;-71
2022/03/15 01:30:54;;;;;;;43.88;23.58;;;4.30;99.90;;;;;;5094258;28;20414;-71
2022/03/15 01:33:21;;;;;;;42.38;23.75;;;4.30;99.90;;;;;;5094393;28;20028;-71
2022/03/15 01:35:46;;;;;;;45.47;22.40;;;4.30;99.90;;;;;;5093979;28;20036;-71
2022/03/15 01:38:12;;;;;;;44.88;24.10;;;4.30;99.90;;;;;;5094158;28;20504;-71
2022/03/15 01:40:38;;;;;;;39.53;21.55;;;4.40;99.90;;;;;;5094177;28;20127;-71
2022/03/15 01:43:03;;;;;;;39.03;22.13;;;4.40;99.90;;;;;;5094148;28;20432;-71
2022/03/15 01:45:35;;;;;;;40.15;22.05;;;4.40;99.90;;;;;;5093948;28;20031;-71
2022/03/15 01:48:02;;;;;;;37.60;21.55;;;4.40;99.90;;;;;;5093951;28;20032;-72
2022/03/15 01:50:27;;;;;;;35.45;21.58;;;4.30;99.90;;;;;;5093922;28;20048;-71
2022/03/15 01:52:53;;;;;;;41.63;21.30;;;4.40;99.90;;;;;;5092655;28;20392;-72
2022/03/15 01:55:19;;;;;;;40.97;21.50;;;4.50;99.90;;;;;;5092624;28;20508;-72
2022/03/15 01:57:45;;;;;;;44.50;23.88;;;4.50;99.90;;;;;;5092974;28;20390;-72
2022/03/15 02:00:11;;;;;;;39.38;22.73;;;4.50;99.90;;;;;;5092476;28;20023;-71
2022/03/15 02:02:36;;;;;;;36.47;20.80;;;4.50;99.90;;;;;;5093796;28;20494;-72
2022/03/15 02:05:02;;;;;;;38.35;19.73;;;4.50;99.90;;;;;;5092926;28;20119;-72
2022/03/15 02:07:28;;;;;;;35.72;19.85;;;4.50;99.90;;;;;;5093625;28;20513;-72
2022/03/15 02:09:53;;;;;;;40.90;20.52;;;4.50;99.90;;;;;;5093610;28;20039;-72
2022/03/15 02:12:19;;;;;;;38.45;21.02;;;4.60;99.90;;;;;;5093599;28;20432;-72
2022/03/15 02:14:45;;;;;;;33.53;19.70;;;4.60;99.90;;;;;;5093416;28;20056;-72
2022/03/15 02:17:10;;;;;;;38.72;19.73;;;4.60;99.90;;;;;;5093839;28;20020;-72
2022/03/15 02:19:37;;;;;;;45.63;21.80;;;4.60;99.90;;;;;;5093474;28;20070;-72
2022/03/15 02:22:03;;;;;;;35.58;19.55;;;4.60;99.90;;;;;;5093510;28;20020;-72
2022/03/15 02:24:28;;;;;;;36.13;20.33;;;4.70;99.90;;;;;;5093419;28;20028;-72
2022/03/15 02:26:55;;;;;;;37.50;20.75;;;4.60;99.90;;;;;;5092157;28;20020;-72
2022/03/15 02:29:21;;;;;;;46.22;22.10;;;4.70;99.90;;;;;;5092075;28;20070;-72
2022/03/15 02:31:48;;;;;;;40.30;21.17;;;4.70;99.90;;;;;;5093362;28;20435;-72
2022/03/15 02:34:14;;;;;;;36.55;20.35;;;4.70;99.90;;;;;;5092106;28;20100;-72
2022/03/15 02:36:39;;;;;;;34.80;19.15;;;4.70;99.90;;;;;;5093337;28;20024;-72
2022/03/15 02:39:05;;;;;;;39.38;19.88;;;4.60;99.90;;;;;;5092128;28;20017;-72
2022/03/15 02:41:30;;;;;;;36.65;20.02;;;4.60;99.90;;;;;;5093219;28;20016;-72
2022/03/15 02:43:56;;;;;;;42.30;20.35;;;4.60;99.90;;;;;;5091913;28;20363;-72
2022/03/15 02:46:27;;;;;;;35.40;19.83;;;4.70;99.90;;;;;;5093209;28;20027;-72
2022/03/15 02:48:52;;;;;;;37.97;19.70;;;4.60;99.90;;;;;;5075878;28;20025;-72
2022/03/15 02:51:19;;;;;;;39.13;21.27;;;4.60;99.90;;;;;;5093498;28;20074;-73
2022/03/15 02:53:45;;;;;;;35.67;20.85;;;4.60;99.90;;;;;;5091869;28;20024;-73
2022/03/15 02:56:11;;;;;;;36.90;19.27;;;4.70;99.90;;;;;;5091778;28;20035;-72
2022/03/15 02:58:38;;;;;;;34.53;19.15;;;4.70;99.90;;;;;;5093181;28;20428;-73
2022/03/15 03:01:03;;;;;;;35.58;19.15;;;4.70;99.90;;;;;;5091849;28;20016;-73
2022/03/15 03:03:29;;;;;;;40.30;19.90;;;4.70;99.90;;;;;;5091819;28;20069;-73
2022/03/15 03:05:55;;;;;;;39.00;19.13;;;4.70;99.90;;;;;;5093048;28;20048;-72
2022/03/15 03:08:25;;;;;;;37.70;19.15;;;4.60;99.90;;;;;;5093034;28;20029;-73
2022/03/15 03:10:52;;;;;;;31.80;18.00;;;4.60;99.90;;;;;;5093011;28;20385;-73
2022/03/15 03:13:18;;;;;;;33.25;19.05;;;4.60;99.90;;;;;;5093018;28;20502;-73
2022/03/15 03:15:44;;;;;;;33.35;18.58;;;4.60;99.90;;;;;;5092903;28;20020;-72
2022/03/15 03:18:09;;;;;;;34.75;18.45;;;4.60;99.90;;;;;;5092981;28;20043;-71
2022/03/15 03:20:35;;;;;;;37.45;18.85;;;4.60;99.90;;;;;;5091587;28;20070;-72
2022/03/15 03:23:01;;;;;;;42.67;19.23;;;4.60;99.90;;;;;;5092853;28;20157;-72
2022/03/15 03:25:30;;;;;;;35.90;18.17;;;4.60;99.90;;;;;;5092853;28;20426;-72
2022/03/15 03:27:57;;;;;;;30.90;17.40;;;4.60;99.90;;;;;;5092832;28;20031;-72
2022/03/15 03:30:23;;;;;;;32.25;17.40;;;4.60;99.90;;;;;;5091641;28;20488;-72
2022/03/15 03:32:49;;;;;;;30.15;16.45;;;4.50;99.90;;;;;;5092783;28;20024;-72
2022/03/15 03:35:14;;;;;;;28.95;17.52;;;4.50;99.90;;;;;;5092476;28;20150;-72
2022/03/15 03:37:40;;;;;;;31.27;17.55;;;4.50;99.90;;;;;;5091554;28;20024;-72
2022/03/15 03:40:07;;;;;;;34.65;18.52;;;4.50;99.90;;;;;;5092663;28;20021;-72
2022/03/15 03:42:34;;;;;;;36.35;18.38;;;4.50;99.90;;;;;;5094423;28;20020;-72
2022/03/15 03:45:00;;;;;;;33.67;17.15;;;4.60;99.90;;;;;;5096359;28;20032;-72
2022/03/15 03:47:25;;;;;;;30.88;17.70;;;4.60;99.90;;;;;;5095165;28;20028;-72
2022/03/15 03:49:51;;;;;;;31.60;16.88;;;4.50;99.90;;;;;;5094901;28;20470;-72
2022/03/15 03:52:17;;;;;;;32.05;17.75;;;4.50;99.90;;;;;;5095051;28;20028;-72
2022/03/15 03:54:42;;;;;;;32.25;17.73;;;4.50;99.90;;;;;;5077962;28;20028;-72
2022/03/15 03:57:08;;;;;;;39.53;19.10;;;4.40;99.90;;;;;;5094822;28;20024;-72
2022/03/15 03:59:33;;;;;;;26.38;16.63;;;4.40;99.90;;;;;;5094866;28;20021;-72
2022/03/15 04:01:59;;;;;;;31.73;18.00;;;4.40;99.90;;;;;;5094822;28;20091;-72
2022/03/15 04:04:25;;;;;;;37.65;19.15;;;4.40;99.90;;;;;;5077879;28;20032;-72
2022/03/15 04:06:51;;;;;;;31.98;18.05;;;4.50;99.90;;;;;;5095984;28;20024;-72
2022/03/15 04:09:17;;;;;;;38.13;18.45;;;4.50;99.90;;;;;;5095949;28;20032;-72
2022/03/15 04:11:42;;;;;;;36.13;18.50;;;4.40;99.90;;;;;;5095782;28;20028;-72
2022/03/15 04:14:09;;;;;;;33.65;18.35;;;4.50;99.90;;;;;;5094560;28;20032;-72
2022/03/15 04:16:35;;;;;;;30.95;17.77;;;4.50;99.90;;;;;;5094673;28;20044;-72
2022/03/15 04:19:00;;;;;;;30.42;16.73;;;4.50;99.90;;;;;;5094434;28;20410;-72
2022/03/15 04:21:26;;;;;;;31.15;17.80;;;4.40;99.90;;;;;;5095576;28;20016;-72
2022/03/15 04:23:53;;;;;;;31.63;16.98;;;4.40;99.90;;;;;;5095576;28;20031;-72
2022/03/15 04:26:19;;;;;;;38.25;18.40;;;4.50;99.90;;;;;;5094243;28;20028;-72
2022/03/15 04:28:45;;;;;;;30.10;16.80;;;4.50;99.90;;;;;;5094356;28;20095;-72
2022/03/15 04:31:11;;;;;;;36.53;17.95;;;4.50;99.90;;;;;;5095529;28;20028;-72
2022/03/15 04:33:36;;;;;;;36.53;18.60;;;4.40;99.90;;;;;;5095251;28;20113;-72
2022/03/15 04:36:02;;;;;;;31.88;18.05;;;4.40;99.90;;;;;;5093997;28;20035;-72
2022/03/15 04:38:28;;;;;;;30.85;17.42;;;4.50;99.90;;;;;;5094078;28;20478;-72
2022/03/15 04:40:54;;;;;;;34.33;17.95;;;4.50;99.90;;;;;;5095350;28;20463;-72
2022/03/15 04:43:19;;;;;;;28.10;17.25;;;4.50;99.90;;;;;;5077125;28;20504;-72
2022/03/15 04:45:45;;;;;;;30.42;17.25;;;4.40;99.90;;;;;;5095235;28;20475;-72
2022/03/15 04:48:10;;;;;;;30.73;17.20;;;4.40;99.90;;;;;;5093884;28;20401;-72
2022/03/15 04:50:36;;;;;;;29.63;16.50;;;4.40;99.90;;;;;;5095102;28;20070;-72
2022/03/15 04:53:01;;;;;;;27.35;16.02;;;4.40;99.90;;;;;;5093691;28;20020;-72
2022/03/15 04:55:27;;;;;;;35.70;17.88;;;4.40;99.90;;;;;;5093698;28;20020;-72
2022/03/15 04:57:52;;;;;;;29.05;16.67;;;4.40;99.90;;;;;;5093731;28;20035;-72
2022/03/15 05:00:18;;;;;;;32.05;16.23;;;4.40;99.90;;;;;;5093790;28;20031;-72
2022/03/15 05:02:45;;;;;;;29.70;17.30;;;4.40;99.90;;;;;;5095002;28;20016;-73
2022/03/15 05:05:14;;;;;;;34.78;17.42;;;4.40;99.90;;;;;;5094818;28;20474;-72
2022/03/15 05:07:40;;;;;;;30.55;16.88;;;4.40;99.90;;;;;;5094762;28;20016;-71
2022/03/15 05:12:52;;;;;;;31.27;18.00;;;4.40;99.90;;;;;;5094478;28;20513;-72
2022/03/15 05:15:17;;;;;;;34.85;17.83;;;4.40;99.90;;;;;;5094572;28;20115;-72
2022/03/15 05:17:43;;;;;;;40.63;18.92;;;4.40;99.90;;;;;;5076414;28;20057;-72
2022/03/15 05:20:10;;;;;;;33.88;18.83;;;4.50;99.90;;;;;;5093481;28;20141;-72
2022/03/15 05:22:36;;;;;;;35.70;19.83;;;4.50;99.90;;;;;;5094655;28;20017;-72
2022/03/15 05:25:02;;;;;;;39.10;19.23;;;4.50;99.90;;;;;;5094369;28;20031;-72
2022/03/15 05:27:31;;;;;;;45.35;20.33;;;4.60;99.90;;;;;;5093226;28;20540;-72
2022/03/15 05:29:56;;;;;;;40.88;19.73;;;4.60;99.90;;;;;;5093087;28;20035;-72
2022/03/15 05:32:22;;;;;;;34.17;18.52;;;4.60;99.90;;;;;;5093126;28;20390;-73
2022/03/15 05:34:48;;;;;;;38.72;19.30;;;4.60;99.90;;;;;;5094005;28;20066;-72
2022/03/15 05:37:13;;;;;;;41.28;21.02;;;4.60;99.90;;;;;;5094287;28;20034;-72
2022/03/15 05:39:39;;;;;;;34.53;19.35;;;4.70;99.90;;;;;;5094234;28;20065;-73
2022/03/15 05:42:04;;;;;;;41.03;20.67;;;4.70;99.90;;;;;;5094099;28;20021;-73
2022/03/15 05:44:30;;;;;;;36.03;19.17;;;4.70;99.90;;;;;;5094065;28;20054;-73
2022/03/15 05:46:56;;;;;;;37.55;19.67;;;4.70;99.90;;;;;;5092868;28;20025;-73
2022/03/15 05:49:21;;;;;;;40.65;19.65;;;4.80;99.90;;;;;;5092647;28;20028;-72
2022/03/15 05:51:47;;;;;;;38.70;19.40;;;4.80;99.90;;;;;;5092658;28;20402;-72
2022/03/15 05:54:12;;;;;;;41.58;19.92;;;4.80;99.90;;;;;;5093870;28;20077;-72
2022/03/15 05:56:40;;;;;;;32.10;18.65;;;4.80;99.90;;;;;;5092528;28;20031;-72
2022/03/15 05:59:06;;;;;;;33.95;17.98;;;4.90;99.90;;;;;;5075971;28;20051;-73
2022/03/15 06:01:32;;;;;;;35.22;17.45;;;4.90;99.90;;;;;;5092600;28;20478;-72
2022/03/15 06:03:57;;;;;;;40.35;18.55;;;4.80;99.90;;;;;;5093761;28;20023;-73
2022/03/15 06:06:24;;;;;;;36.55;18.42;;;4.80;99.90;;;;;;5093178;28;20024;-73
2022/03/15 06:08:51;;;;;;;33.92;18.90;;;4.80;99.90;;;;;;5093574;28;20024;-73
2022/03/15 06:11:19;;;;;;;39.63;19.45;;;4.80;99.90;;;;;;5092357;28;20028;-73
2022/03/15 06:13:44;;;;;;;38.53;18.92;;;4.90;99.90;;;;;;5092489;28;20537;-73
2022/03/15 06:16:10;;;;;;;35.65;18.45;;;4.90;99.90;;;;;;5093577;28;20107;-73
2022/03/15 06:18:35;;;;;;;39.72;19.05;;;5.00;99.90;;;;;;5092173;28;20020;-73
2022/03/15 06:21:01;;;;;;;38.63;19.33;;;5.00;99.90;;;;;;5093456;28;20431;-72
2022/03/15 06:23:27;;;;;;;34.67;17.38;;;5.10;99.90;;;;;;5092322;28;20027;-72
2022/03/15 06:25:53;;;;;;;39.97;19.38;;;5.10;99.90;;;;;;5093378;28;20099;-72
2022/03/15 06:28:18;;;;;;;37.97;18.40;;;5.20;99.90;;;;;;5092313;28;20032;-72
2022/03/15 06:30:45;;;;;;;39.03;19.67;;;5.20;99.90;;;;;;5093358;28;20132;-72
2022/03/15 06:33:11;;;;;;;40.85;18.30;;;5.30;99.90;;;;;;5093384;28;20020;-72
2022/03/15 06:35:36;;;;;;;40.97;18.70;;;5.30;99.90;;;;;;5092967;28;20046;-72
2022/03/15 06:38:02;;;;;;;34.17;18.30;;;5.30;99.90;;;;;;5075072;28;20051;-72
2022/03/15 06:40:29;;;;;;;41.13;19.17;;;5.30;99.90;;;;;;5092038;28;20235;-73
2022/03/15 06:42:55;;;;;;;36.97;18.08;;;5.30;99.90;;;;;;5092041;28;20074;-73
2022/03/15 06:45:22;;;;;;;38.58;17.83;;;5.40;99.90;;;;;;5093239;28;20458;-72
2022/03/15 06:47:48;;;;;;;35.45;18.80;;;5.50;99.90;;;;;;5093200;28;20031;-72
2022/03/15 06:50:14;;;;;;;36.47;18.42;;;5.50;99.90;;;;;;5091809;28;20031;-72
2022/03/15 06:52:42;;;;;;;36.22;18.38;;;5.50;99.90;;;;;;5093127;28;20024;-73
2022/03/15 06:55:08;;;;;;;39.13;18.10;;;5.60;99.90;;;;;;5092958;28;20024;-72
2022/03/15 06:57:34;;;;;;;37.22;19.05;;;5.60;99.90;;;;;;5093439;28;20022;-72
2022/03/15 07:00:01;;;;;;;38.60;18.75;;;5.70;99.90;;;;;;5092989;28;20020;-73
2022/03/15 07:02:27;;;;;;;47.05;17.92;;;5.80;99.90;;;;;;5091602;28;20027;-72
2022/03/15 07:04:53;;;;;;;37.58;17.92;;;5.90;99.90;;;;;;5091541;28;20059;-72
2022/03/15 07:07:19;;;;;;;39.65;18.27;;;5.90;99.90;;;;;;5092944;28;20039;-72
2022/03/15 07:09:45;;;;;;;33.28;17.05;;;6.00;99.90;;;;;;5074820;28;20035;-72
2022/03/15 07:12:11;;;;;;;33.22;18.35;;;6.10;99.90;;;;;;5091648;28;20024;-72
2022/03/15 07:14:37;;;;;;;36.65;17.55;;;6.20;99.90;;;;;;5091661;28;20107;-72
2022/03/15 07:17:02;;;;;;;37.83;18.23;;;6.20;99.90;;;;;;5093761;28;20481;-72
2022/03/15 07:19:28;;;;;;;40.13;18.35;;;6.30;99.90;;;;;;5096789;28;20027;-72
2022/03/15 07:21:54;;;;;;;32.83;17.55;;;6.40;99.90;;;;;;5096778;28;20099;-72
2022/03/15 07:24:20;;;;;;;33.75;17.38;;;6.50;99.90;;;;;;5096774;28;20474;-72
2022/03/15 07:26:45;;;;;;;32.08;16.85;;;6.50;99.90;;;;;;5094849;28;20030;-72
2022/03/15 07:29:11;;;;;;;39.35;18.55;;;6.60;99.90;;;;;;5096471;28;20424;-73
2022/03/15 07:31:36;;;;;;;35.10;17.70;;;6.60;99.90;;;;;;5096426;28;20024;-72
2022/03/15 07:34:02;;;;;;;34.75;17.63;;;6.60;99.90;;;;;;5095950;28;20076;-72
2022/03/15 07:36:27;;;;;;;35.42;18.38;;;6.60;99.90;;;;;;5095637;28;20520;-68
2022/03/15 07:38:53;;;;;;;35.97;18.27;;;6.60;99.90;;;;;;5095875;28;20030;-73
2022/03/15 07:41:21;;;;;;;36.13;16.65;;;6.70;99.90;;;;;;5093910;28;20098;-75
2022/03/15 07:43:47;;;;;;;36.42;17.85;;;6.70;99.90;;;;;;5095929;28;20024;-73
2022/03/15 07:46:13;;;;;;;34.60;19.02;;;6.80;99.90;;;;;;5095359;28;20028;-73
2022/03/15 07:48:39;;;;;;;33.60;16.08;;;6.90;99.90;;;;;;5093507;28;20069;-73
2022/03/15 07:51:04;;;;;;;32.15;17.25;;;6.90;99.90;;;;;;5096085;28;20521;-73
2022/03/15 07:53:30;;;;;;;33.80;16.85;;;7.10;99.90;;;;;;5094152;28;20066;-73
2022/03/15 07:55:56;;;;;;;27.15;14.75;;;7.30;99.90;;;;;;5094118;28;20071;-62
2022/03/15 07:58:22;;;;;;;26.95;15.15;;;7.30;99.90;;;;;;5095896;28;20487;-62
2022/03/15 08:00:48;;;;;;;30.08;15.95;;;7.30;99.90;;;;;;5095861;28;20020;-65
2022/03/15 08:03:14;;;;;;;28.60;15.15;;;7.40;99.90;;;;;;5077704;28;20157;-64
2022/03/15 08:05:39;;;;;;;29.52;15.93;;;7.50;99.90;;;;;;5095286;28;20064;-64
2022/03/15 08:08:06;;;;;;;31.83;15.73;;;7.50;99.90;;;;;;5094266;28;20039;-74
2022/03/15 08:10:32;;;;;;;31.52;16.30;;;7.50;99.90;;;;;;5095739;28;20413;-73
2022/03/15 08:12:58;;;;;;;30.55;15.90;;;7.60;99.90;;;;;;5095303;28;20046;-73
2022/03/15 08:15:23;;;;;;;28.02;15.23;;;7.60;99.90;;;;;;5094617;28;20038;-73
2022/03/15 08:17:49;;;;;;;33.10;15.75;;;7.60;99.90;;;;;;5095347;28;20030;-74
2022/03/15 08:20:18;;;;;;;32.17;15.95;;;7.60;99.90;;;;;;5094062;28;20063;-73
2022/03/15 08:22:44;;;;;;;26.45;14.95;;;7.60;99.90;;;;;;5093613;28;20024;-74
2022/03/15 08:25:09;;;;;;;35.22;15.80;;;7.60;99.90;;;;;;5094137;28;20028;-74
2022/03/15 08:27:35;;;;;;;31.17;15.13;;;7.70;99.90;;;;;;5094985;28;20028;-74
2022/03/15 08:30:00;;;;;;;27.90;15.73;;;7.80;99.90;;;;;;5095521;28;20028;-74
2022/03/15 08:32:26;;;;;;;29.45;15.07;;;7.90;99.90;;;;;;5095221;28;20020;-74
2022/03/15 08:34:52;;;;;;;28.58;15.10;;;8.00;99.90;;;;;;5094524;28;20036;-73
2022/03/15 08:37:17;;;;;;;30.20;14.63;;;8.20;99.90;;;;;;5095184;28;20020;-73
2022/03/15 08:39:43;;;;;;;25.88;12.80;;;8.30;99.90;;;;;;5093843;28;20091;-73
2022/03/15 08:42:09;;;;;;;26.60;14.05;;;8.40;99.90;;;;;;5093799;28;20027;-74
2022/03/15 08:44:35;;;;;;;23.90;12.82;;;8.50;99.90;;;;;;5095055;28;20027;-74
2022/03/15 08:47:00;;;;;;;27.38;13.43;;;8.70;99.90;;;;;;5076859;28;20423;-74
2022/03/15 08:49:26;;;;;;;21.92;12.50;;;8.70;99.90;;;;;;5095114;28;20500;-73
2022/03/15 08:51:52;;;;;;;27.05;14.02;;;8.70;99.90;;;;;;5094892;28;20028;-72
2022/03/15 08:54:18;;;;;;;26.92;13.35;;;8.80;99.90;;;;;;5094737;28;20090;-73
2022/03/15 08:56:44;;;;;;;22.25;12.75;;;8.80;99.90;;;;;;5093608;28;20016;-73
2022/03/15 08:59:12;;;;;;;25.42;12.30;;;8.80;99.90;;;;;;5077112;28;20534;-73
2022/03/15 09:01:38;;;;;;;22.17;11.73;;;9.00;99.90;;;;;;5077071;28;20029;-73
2022/03/15 09:04:04;;;;;;;28.05;12.48;;;9.10;99.90;;;;;;5094854;28;20468;-73
2022/03/15 09:06:30;;;;;;;25.92;12.13;;;9.20;99.90;;;;;;5076605;28;20031;-74
2022/03/15 09:08:59;;;;;;;24.80;11.55;;;9.20;99.90;;;;;;5076450;28;20110;-75
2022/03/15 09:11:25;;;;;;;23.63;11.60;;;9.30;99.90;;;;;;5077150;28;20028;-74
2022/03/15 09:13:50;;;;;;;26.27;11.50;;;9.30;99.90;;;;;;5076426;28;20035;-75
2022/03/15 09:16:16;;;;;;;22.52;10.23;;;9.50;99.90;;;;;;5094316;28;20497;-73
2022/03/15 09:18:43;;;;;;;22.45;10.38;;;9.50;99.90;;;;;;5093207;28;20490;-75
2022/03/15 09:21:09;;;;;;;27.48;14.07;;;9.60;99.90;;;;;;5076567;28;20516;-73
2022/03/15 09:23:35;;;;;;;24.08;11.55;;;9.70;99.90;;;;;;5093294;28;20069;-72
2022/03/15 09:26:00;;;;;;;20.85;10.85;;;9.80;99.90;;;;;;5094377;28;20032;-74
2022/03/15 09:28:26;;;;;;;16.77;9.95;;;9.70;99.90;;;;;;5076359;28;20024;-74
2022/03/15 09:30:51;;;;;;;22.58;10.68;;;9.80;99.90;;;;;;5093144;28;20028;-74
2022/03/15 09:33:17;;;;;;;21.35;10.73;;;9.90;99.90;;;;;;5095170;28;20539;-74
2022/03/15 09:35:43;;;;;;;20.17;10.20;;;10.00;99.90;;;;;;5098615;28;20044;-74
2022/03/15 09:38:09;;;;;;;26.02;9.98;;;9.90;99.90;;;;;;5094582;28;20028;-74
2022/03/15 09:40:36;;;;;;;20.63;10.35;;;9.80;99.90;;;;;;5091601;28;20397;-73
2022/03/15 09:43:03;;;;;;;23.02;9.95;;;9.80;99.90;;;;;;5093991;28;20099;-74
2022/03/15 09:45:31;;;;;;;21.35;10.23;;;9.80;99.90;;;;;;5093612;28;20059;-74
2022/03/15 09:47:59;;;;;;;23.45;9.50;;;10.00;99.90;;;;;;5092417;28;20032;-74
2022/03/15 09:50:25;;;;;;;15.73;9.50;;;10.00;99.90;;;;;;5093765;28;20572;-73
2022/03/15 09:52:54;;;;;;;18.13;10.35;;;10.10;99.90;;;;;;5092535;28;20086;-73
2022/03/15 09:55:20;;;;;;;17.02;9.13;;;10.10;99.90;;;;;;5093481;28;20390;-74
2022/03/15 09:57:46;;;;;;;26.20;10.05;;;10.30;99.90;;;;;;5072029;28;20020;-73
2022/03/15 10:00:15;;;;;;;18.10;9.27;;;10.30;99.90;;;;;;5073473;28;20028;-74
2022/03/15 10:02:42;;;;;;;18.77;8.93;;;10.40;99.90;;;;;;5056098;28;20086;-74
2022/03/15 10:05:09;;;;;;;19.42;8.65;;;10.50;99.90;;;;;;5073938;28;20025;-74
2022/03/15 10:07:36;;;;;;;16.35;8.55;;;10.60;99.90;;;;;;5072172;28;20024;-74
2022/03/15 10:10:03;;;;;;;18.90;7.72;;;10.70;99.90;;;;;;5072344;28;20044;-74
2022/03/15 10:12:28;;;;;;;16.80;7.45;;;11.00;99.90;;;;;;5073439;28;20036;-74
2022/03/15 10:14:56;;;;;;;16.00;7.07;;;11.00;99.90;;;;;;5071975;28;20433;-73
2022/03/15 10:17:21;;;;;;;19.15;7.50;;;11.10;99.90;;;;;;5072393;28;20427;-74
2022/03/15 10:19:56;;;;;;;18.98;7.70;;;11.20;99.90;;;;;;5077850;28;20054;-74
2022/03/15 10:22:24;;;;;;;13.73;6.45;;;11.30;99.90;;;;;;5093323;28;20028;-74
2022/03/15 10:24:50;;;;;;;15.18;6.45;;;11.40;99.90;;;;;;5092066;28;20066;-74
2022/03/15 10:27:17;;;;;;;16.00;7.15;;;11.30;99.90;;;;;;5093643;28;20023;-74
2022/03/15 10:29:44;;;;;;;11.15;6.55;;;11.30;99.90;;;;;;5091860;28;20020;-75
2022/03/15 10:32:10;;;;;;;13.38;6.35;;;11.30;99.90;;;;;;5092141;28;20556;-74
2022/03/15 10:34:37;;;;;;;13.73;7.32;;;11.50;99.90;;;;;;5091762;28;20101;-74
2022/03/15 10:37:03;;;;;;;14.80;5.88;;;11.50;99.90;;;;;;5092781;28;20099;-74
2022/03/15 10:39:28;;;;;;;19.15;6.80;;;11.50;99.90;;;;;;5093515;28;20045;-74
2022/03/15 10:42:02;;;;;;;15.20;6.32;;;11.40;99.90;;;;;;5092847;28;20016;-74
2022/03/15 10:44:33;;;;;;;15.50;6.25;;;11.40;99.90;;;;;;5091294;28;20386;-73
2022/03/15 10:47:09;;;;;;;12.32;6.28;;;11.40;99.90;;;;;;5093213;28;20028;-74
2022/03/15 10:49:56;;;;;;;11.40;5.53;;;11.40;99.90;;;;;;5075132;28;20028;-74
2022/03/15 10:52:40;;;;;;;11.15;5.90;;;11.40;99.90;;;;;;5096398;28;20031;-75
2022/03/15 10:55:13;;;;;;;17.42;6.45;;;11.50;99.90;;;;;;5097170;28;20028;-74
2022/03/15 10:57:51;;;;;;;16.60;6.95;;;11.60;99.90;;;;;;5097171;28;20055;-74
2022/03/15 11:00:20;;;;;;;12.70;5.90;;;11.70;99.90;;;;;;5079826;28;20028;-74
2022/03/15 11:02:48;;;;;;;14.55;5.70;;;11.70;99.90;;;;;;5096832;28;20024;-74
2022/03/15 11:05:27;;;;;;;14.63;6.88;;;11.70;99.90;;;;;;5095910;28;20026;-74
2022/03/15 11:07:53;;;;;;;14.88;5.90;;;11.70;99.90;;;;;;5097198;28;20086;-74
2022/03/15 11:10:19;;;;;;;12.32;5.63;;;11.80;99.90;;;;;;5096918;28;20036;-74
2022/03/15 11:13:06;;;;;;;15.48;5.50;;;11.80;99.90;;;;;;5096770;28;20039;-74
2022/03/15 11:15:39;;;;;;;13.23;5.47;;;11.90;99.90;;;;;;5095543;28;20020;-74
2022/03/15 11:18:06;;;;;;;13.80;6.15;;;12.00;99.90;;;;;;5095320;28;20024;-74
2022/03/15 11:20:35;;;;;;;12.32;5.45;;;11.90;99.90;;;;;;5096862;28;20027;-75
2022/03/15 11:23:02;;;;;;;11.77;5.20;;;11.90;99.90;;;;;;5095568;28;20020;-74
2022/03/15 11:25:39;;;;;;;13.70;4.90;;;11.60;99.90;;;;;;5095091;28;20030;-74
2022/03/15 11:28:08;;;;;;;12.20;5.95;;;11.60;99.90;;;;;;5096424;28;20024;-75
2022/03/15 11:30:34;;;;;;;11.15;5.30;;;11.80;99.90;;;;;;5079184;28;20031;-75
2022/03/15 11:33:02;;;;;;;11.80;5.00;;;11.80;99.90;;;;;;5075460;28;20028;-74
2022/03/15 11:35:31;;;;;;;12.23;5.50;;;12.00;99.90;;;;;;5075864;28;20629;-74
2022/03/15 11:37:59;;;;;;;16.15;5.82;;;12.00;99.90;;;;;;5075260;28;20078;-74
2022/03/15 11:40:25;;;;;;;8.88;4.80;;;12.10;99.90;;;;;;5076134;28;20048;-74
2022/03/15 11:42:57;;;;;;;10.52;4.95;;;12.10;99.90;;;;;;5074791;28;20048;-74
2022/03/15 11:45:30;;;;;;;9.73;5.13;;;12.10;99.90;;;;;;5074781;28;20504;-73
2022/03/15 11:48:11;;;;;;;13.07;5.23;;;12.20;99.90;;;;;;5074805;28;20033;-74
2022/03/15 11:51:13;;;;;;;9.55;4.80;;;12.40;99.90;;;;;;5075899;28;20555;-74
2022/03/15 11:54:01;;;;;;;14.05;4.60;;;12.50;99.90;;;;;;5075754;28;20056;-74
2022/03/15 11:56:38;;;;;;;13.52;5.40;;;12.40;99.90;;;;;;5074814;28;20032;-74
2022/03/15 11:59:04;;;;;;;12.55;5.13;;;12.50;99.90;;;;;;5076151;28;20566;-74
2022/03/15 12:01:30;;;;;;;10.02;5.25;;;12.40;99.90;;;;;;5074701;28;20056;-74
2022/03/15 12:03:59;;;;;;;15.73;5.72;;;12.40;99.90;;;;;;5075631;28;20103;-75
2022/03/15 12:06:28;;;;;;;8.50;4.57;;;12.50;99.90;;;;;;5076427;28;20417;-75
2022/03/15 12:08:57;;;;;;;9.95;5.10;;;12.50;99.90;;;;;;5074290;28;20107;-75
2022/03/15 12:11:34;;;;;;;10.63;4.88;;;12.60;99.90;;;;;;5074378;28;20031;-75
2022/03/15 12:14:11;;;;;;;12.93;7.32;;;12.80;99.90;;;;;;5074301;28;20509;-75
2022/03/15 12:16:43;;;;;;;18.35;8.48;;;12.80;99.90;;;;;;5074288;28;20383;-75
2022/03/15 12:19:17;;;;;;;11.05;4.97;;;12.90;99.90;;;;;;5057903;28;20017;-75
2022/03/15 12:21:54;;;;;;;17.33;6.20;;;12.70;99.90;;;;;;5074085;28;20435;-75
2022/03/15 12:24:31;;;;;;;12.48;7.50;;;12.80;99.90;;;;;;5074134;28;20031;-75
2022/03/15 12:26:59;;;;;;;12.98;5.80;;;12.70;99.90;;;;;;5090805;28;20502;-75
2022/03/15 12:29:27;;;;;;;24.98;11.90;;;12.60;99.90;;;;;;5075025;28;20043;-74
2022/03/15 12:31:53;;;;;;;9.80;5.00;;;12.70;99.90;;;;;;5074727;28;20119;-75
2022/03/15 12:34:19;;;;;;;14.35;5.25;;;12.70;99.90;;;;;;5057162;28;20080;-75
2022/03/15 12:36:53;;;;;;;11.02;5.80;;;12.80;99.90;;;;;;5075079;28;20028;-75
2022/03/15 12:39:22;;;;;;;13.65;5.80;;;12.80;99.90;;;;;;5073922;28;20078;-75